createdAt,value
2018-04-23T00:01:33.868Z,9.43
2018-04-23T00:04:02.102Z,11.13
2018-04-23T00:06:29.568Z,10.53
2018-04-23T00:08:57.063Z,11.10
2018-04-23T00:11:25.297Z,11.13
2018-04-23T00:13:52.822Z,11.20
2018-04-23T00:16:20.327Z,9.97
2018-04-23T00:18:47.824Z,9.87
2018-04-23T00:21:15.308Z,10.60
2018-04-23T00:23:42.792Z,11.50
2018-04-23T00:26:10.259Z,11.50
2018-04-23T00:28:37.720Z,13.00
2018-04-23T00:31:05.187Z,11.80
2018-04-23T00:33:33.435Z,11.93
2018-04-23T00:36:00.912Z,13.10
2018-04-23T00:38:28.359Z,11.37
2018-04-23T00:40:55.821Z,13.90
2018-04-23T00:43:23.300Z,13.47
2018-04-23T00:45:51.535Z,12.77
2018-04-23T00:48:19.005Z,12.53
2018-04-23T00:50:46.491Z,13.10
2018-04-23T00:53:27.132Z,12.60
2018-04-23T00:55:54.846Z,12.93
2018-04-23T00:58:22.354Z,13.93
2018-04-23T01:00:49.812Z,13.07
2018-04-23T01:03:17.280Z,13.43
2018-04-23T01:05:45.513Z,13.17
2018-04-23T01:08:12.969Z,13.77
2018-04-23T01:10:40.444Z,14.67
2018-04-23T01:13:07.912Z,14.10
2018-04-23T01:15:35.359Z,14.97
2018-04-23T01:18:02.867Z,16.50
2018-04-23T01:20:30.341Z,16.10
2018-04-23T01:22:57.803Z,15.13
2018-04-23T01:25:25.269Z,16.57
2018-04-23T01:27:52.729Z,15.50
2018-04-23T01:30:20.200Z,17.20
2018-04-23T01:32:47.664Z,16.10
2018-04-23T01:35:15.134Z,16.30
2018-04-23T01:37:42.603Z,14.40
2018-04-23T01:40:10.832Z,15.70
2018-04-23T01:42:38.397Z,14.03
2018-04-23T01:45:06.062Z,14.73
2018-04-23T01:47:33.542Z,15.63
2018-04-23T01:50:01.006Z,15.90
2018-04-23T01:52:30.065Z,16.60
2018-04-23T01:54:57.536Z,14.23
2018-04-23T01:57:24.997Z,15.47
2018-04-23T01:59:52.492Z,16.07
2018-04-23T02:02:20.864Z,15.27
2018-04-23T02:04:48.362Z,13.40
2018-04-23T02:07:15.832Z,14.80
2018-04-23T02:09:43.299Z,15.07
2018-04-23T02:12:10.793Z,13.57
2018-04-23T02:14:39.071Z,13.07
2018-04-23T02:17:07.297Z,12.30
2018-04-23T02:19:34.764Z,13.77
2018-04-23T02:22:02.265Z,11.30
2018-04-23T02:24:29.749Z,8.97
2018-04-23T02:26:57.201Z,5.60
2018-04-23T02:29:24.675Z,5.87
2018-04-23T02:31:52.148Z,5.17
2018-04-23T02:34:19.611Z,4.20
2018-04-23T02:36:47.076Z,4.30
2018-04-23T02:39:15.311Z,6.30
2018-04-23T02:41:42.792Z,5.50
2018-04-23T02:44:10.302Z,4.47
2018-04-23T02:46:37.761Z,5.47
2018-04-23T02:49:05.236Z,4.33
2018-04-23T02:51:32.684Z,3.87
2018-04-23T02:54:00.137Z,4.60
2018-04-23T02:56:27.609Z,4.67
2018-04-23T02:58:55.068Z,4.63
2018-04-23T03:01:22.557Z,4.20
2018-04-23T03:03:50.045Z,4.47
2018-04-23T03:06:17.499Z,4.83
2018-04-23T03:08:44.968Z,4.70
2018-04-23T03:11:12.429Z,4.50
2018-04-23T03:13:39.894Z,3.87
2018-04-23T03:16:07.356Z,4.93
2018-04-23T03:18:34.840Z,5.50
2018-04-23T03:21:02.293Z,5.00
2018-04-23T03:23:29.762Z,5.13
2018-04-23T03:25:57.216Z,4.90
2018-04-23T03:28:24.673Z,4.80
2018-04-23T03:30:52.913Z,7.50
2018-04-23T03:33:20.372Z,5.90
2018-04-23T03:35:47.836Z,5.70
2018-04-23T03:38:15.295Z,4.63
2018-04-23T03:40:42.784Z,5.77
2018-04-23T03:43:10.239Z,6.10
2018-04-23T03:45:37.704Z,6.57
2018-04-23T03:48:05.172Z,5.40
2018-04-23T03:50:33.451Z,5.50
2018-04-23T03:53:00.862Z,5.40
2018-04-23T03:55:28.317Z,6.07
2018-04-23T03:57:55.776Z,5.63
2018-04-23T04:00:23.232Z,5.97
2018-04-23T04:02:50.708Z,5.87
2018-04-23T04:05:18.164Z,6.97
2018-04-23T04:07:45.641Z,5.83
2018-04-23T04:10:13.899Z,5.87
2018-04-23T04:12:53.163Z,5.90
2018-04-23T04:15:33.484Z,5.67
2018-04-23T04:18:30.535Z,5.90
2018-04-23T04:20:58.002Z,6.23
2018-04-23T04:23:27.220Z,6.37
2018-04-23T04:25:54.687Z,6.20
2018-04-23T04:28:22.141Z,6.50
2018-04-23T04:30:49.607Z,6.87
2018-04-23T04:33:17.066Z,6.00
2018-04-23T04:35:44.625Z,5.83
2018-04-23T04:38:12.061Z,6.47
2018-04-23T04:40:39.479Z,6.70
2018-04-23T04:43:06.952Z,6.90
2018-04-23T04:45:34.416Z,6.80
2018-04-23T04:48:01.863Z,6.10
2018-04-23T04:50:29.359Z,5.77
2018-04-23T04:52:56.811Z,6.80
2018-04-23T04:55:25.059Z,6.70
2018-04-23T04:57:52.512Z,7.03
2018-04-23T05:00:19.972Z,7.00
2018-04-23T05:02:47.481Z,6.33
2018-04-23T05:05:14.943Z,6.63
2018-04-23T05:07:42.413Z,8.10
2018-04-23T05:10:09.883Z,6.63
2018-04-23T05:12:37.344Z,6.50
2018-04-23T05:15:04.824Z,6.50
2018-04-23T05:17:33.044Z,6.47
2018-04-23T05:20:00.516Z,6.70
2018-04-23T05:22:28.820Z,6.53
2018-04-23T05:24:56.286Z,6.50
2018-04-23T05:27:24.521Z,7.07
2018-04-23T05:29:51.981Z,6.17
2018-04-23T05:32:19.462Z,6.63
2018-04-23T05:34:47.474Z,6.60
2018-04-23T05:37:14.941Z,7.47
2018-04-23T05:39:42.396Z,6.50
2018-04-23T05:42:09.880Z,6.80
2018-04-23T05:44:37.341Z,6.30
2018-04-23T05:47:04.805Z,6.70
2018-04-23T05:49:32.271Z,5.87
2018-04-23T05:51:59.738Z,6.50
2018-04-23T05:54:27.203Z,6.40
2018-04-23T05:56:55.426Z,7.23
2018-04-23T05:59:22.908Z,6.10
2018-04-23T06:01:50.368Z,6.50
2018-04-23T06:04:17.824Z,6.20
2018-04-23T06:06:45.306Z,6.10
2018-04-23T06:09:13.541Z,6.10
2018-04-23T06:11:40.996Z,5.93
2018-04-23T06:14:08.461Z,5.10
2018-04-23T06:16:35.910Z,5.63
2018-04-23T06:19:04.167Z,4.80
2018-04-23T06:21:31.624Z,5.40
2018-04-23T06:23:59.092Z,5.77
2018-04-23T06:26:27.313Z,4.40
2018-04-23T06:28:55.543Z,5.13
2018-04-23T06:31:23.077Z,4.90
2018-04-23T06:33:50.526Z,4.90
2018-04-23T06:36:17.988Z,4.30
2018-04-23T06:38:45.451Z,5.03
2018-04-23T06:41:12.911Z,4.47
2018-04-23T06:43:40.379Z,5.07
2018-04-23T06:46:07.902Z,4.43
2018-04-23T06:48:35.315Z,5.03
2018-04-23T06:51:03.643Z,5.03
2018-04-23T06:53:31.159Z,5.10
2018-04-23T06:55:58.620Z,4.97
2018-04-23T06:58:26.063Z,4.77
2018-04-23T07:00:53.529Z,5.00
2018-04-23T07:03:21.080Z,4.60
2018-04-23T07:05:48.537Z,4.80
2018-04-23T07:08:16.004Z,4.93
2018-04-23T07:10:43.476Z,4.97
2018-04-23T07:13:11.699Z,5.13
2018-04-23T07:15:39.147Z,4.87
2018-04-23T07:18:07.229Z,4.70
2018-04-23T07:20:34.700Z,4.97
2018-04-23T07:23:02.180Z,4.83
2018-04-23T07:25:29.633Z,4.13
2018-04-23T07:27:57.181Z,3.70
2018-04-23T07:30:24.663Z,5.47
2018-04-23T07:32:52.923Z,4.70
2018-04-23T07:35:20.380Z,4.30
2018-04-23T07:37:47.851Z,3.90
2018-04-23T07:40:16.064Z,3.30
2018-04-23T07:42:43.547Z,4.10
2018-04-23T07:45:11.021Z,5.33
2018-04-23T07:47:38.476Z,4.03
2018-04-23T07:50:05.936Z,2.43
2018-04-23T07:52:33.401Z,3.20
2018-04-23T07:55:00.861Z,2.73
2018-04-23T07:57:29.097Z,1.87
2018-04-23T07:59:56.640Z,2.30
2018-04-23T08:02:24.857Z,2.00
2018-04-23T08:04:52.320Z,2.50
2018-04-23T08:07:20.543Z,1.70
2018-04-23T08:09:48.009Z,2.27
2018-04-23T08:12:15.516Z,2.60
2018-04-23T08:14:42.937Z,2.50
2018-04-23T08:17:10.467Z,2.63
2018-04-23T08:19:37.918Z,2.30
2018-04-23T08:22:05.385Z,2.10
2018-04-23T08:24:33.666Z,2.73
2018-04-23T08:27:01.132Z,1.70
2018-04-23T08:29:28.598Z,2.13
2018-04-23T08:31:56.094Z,1.90
2018-04-23T08:34:23.543Z,1.80
2018-04-23T08:36:51.763Z,2.40
2018-04-23T08:39:19.220Z,2.67
2018-04-23T08:41:46.712Z,2.67
2018-04-23T08:44:14.198Z,3.10
2018-04-23T08:46:42.417Z,3.10
2018-04-23T08:49:09.876Z,3.60
2018-04-23T08:51:37.330Z,2.57
2018-04-23T08:54:04.795Z,3.07
2018-04-23T08:56:32.268Z,3.70
2018-04-23T08:58:59.840Z,3.67
2018-04-23T09:01:27.339Z,3.43
2018-04-23T09:03:54.749Z,3.57
2018-04-23T09:06:22.216Z,3.70
2018-04-23T09:08:49.672Z,3.27
2018-04-23T09:11:17.151Z,3.60
2018-04-23T09:13:44.617Z,3.47
2018-04-23T09:16:12.073Z,2.50
2018-04-23T09:18:39.539Z,3.07
2018-04-23T09:21:06.988Z,2.50
2018-04-23T09:23:34.443Z,2.60
2018-04-23T09:26:01.909Z,3.63
2018-04-23T09:28:29.380Z,3.40
2018-04-23T09:30:56.840Z,3.10
2018-04-23T09:33:25.248Z,2.70
2018-04-23T09:35:52.748Z,2.80
2018-04-23T09:38:20.180Z,2.67
2018-04-23T09:40:48.417Z,3.03
2018-04-23T09:43:15.881Z,2.80
2018-04-23T09:45:43.333Z,2.73
2018-04-23T09:48:10.800Z,3.80
2018-04-23T09:50:38.276Z,4.03
2018-04-23T09:53:07.119Z,3.00
2018-04-23T09:55:34.616Z,3.20
2018-04-23T09:58:02.183Z,3.40
2018-04-23T10:00:31.439Z,2.70
2018-04-23T10:02:58.900Z,2.50
2018-04-23T10:05:26.397Z,3.77
2018-04-23T10:07:54.631Z,2.93
2018-04-23T10:10:22.105Z,3.03
2018-04-23T10:12:49.572Z,3.23
2018-04-23T10:15:17.029Z,2.67
2018-04-23T10:17:44.493Z,2.70
2018-04-23T10:20:11.952Z,2.63
2018-04-23T10:22:39.513Z,2.70
2018-04-23T10:25:06.967Z,3.17
2018-04-23T10:27:34.440Z,3.50
2018-04-23T10:30:02.673Z,2.60
2018-04-23T10:32:30.144Z,3.30
2018-04-23T10:34:57.608Z,3.50
2018-04-23T10:37:25.061Z,3.10
2018-04-23T10:39:52.528Z,4.37
2018-04-23T10:42:20.753Z,3.20
2018-04-23T10:44:48.997Z,2.93
2018-04-23T10:47:17.634Z,3.33
2018-04-23T10:49:45.098Z,4.20
2018-04-23T10:52:12.564Z,3.20
2018-04-23T10:54:40.029Z,3.67
2018-04-23T10:57:07.672Z,3.70
2018-04-23T10:59:35.240Z,3.80
2018-04-23T11:02:02.698Z,3.27
2018-04-23T11:04:30.163Z,3.50
2018-04-23T11:06:57.622Z,3.37
2018-04-23T11:09:25.894Z,3.47
2018-04-23T11:11:54.121Z,4.37
2018-04-23T11:14:21.581Z,3.77
2018-04-23T11:16:49.076Z,3.97
2018-04-23T11:19:16.540Z,3.63
2018-04-23T11:21:44.010Z,3.20
2018-04-23T11:24:11.448Z,3.57
2018-04-23T11:26:38.912Z,4.50
2018-04-23T11:29:06.377Z,4.33
2018-04-23T11:31:34.608Z,4.27
2018-04-23T11:34:02.085Z,3.57
2018-04-23T11:36:29.532Z,4.50
2018-04-23T11:38:57.028Z,3.90
2018-04-23T11:41:25.368Z,4.57
2018-04-23T11:43:52.836Z,3.23
2018-04-23T11:46:21.080Z,2.83
2018-04-23T11:48:48.538Z,2.90
2018-04-23T11:51:16.009Z,2.97
2018-04-23T11:53:43.463Z,2.73
2018-04-23T11:56:10.924Z,2.20
2018-04-23T11:58:38.398Z,2.40
2018-04-23T12:01:05.860Z,2.57
2018-04-23T12:03:33.719Z,1.20
2018-04-23T12:08:35.171Z,1.67
2018-04-23T12:11:02.648Z,1.70
2018-04-23T12:13:30.208Z,1.53
2018-04-23T12:15:57.669Z,1.60
2018-04-23T12:18:25.216Z,1.60
2018-04-23T12:20:52.680Z,1.70
2018-04-23T12:23:20.128Z,1.80
2018-04-23T12:25:47.593Z,1.70
2018-04-23T12:28:15.049Z,1.57
2018-04-23T12:30:42.501Z,1.93
2018-04-23T12:33:09.956Z,1.63
2018-04-23T12:35:38.591Z,1.70
2018-04-23T12:38:06.065Z,2.17
2018-04-23T12:40:33.520Z,1.20
2018-04-23T12:43:00.987Z,1.03
2018-04-23T12:45:28.460Z,1.20
2018-04-23T12:47:55.928Z,0.97
2018-04-23T12:50:23.380Z,1.30
2018-04-23T12:52:50.852Z,1.70
2018-04-23T12:55:18.301Z,0.90
2018-04-23T12:57:45.864Z,1.10
2018-04-23T13:00:13.339Z,0.80
2018-04-23T13:02:41.573Z,2.10
2018-04-23T13:05:09.069Z,2.00
2018-04-23T13:07:37.293Z,1.70
2018-04-23T13:10:04.753Z,1.53
2018-04-23T13:12:33.064Z,1.27
2018-04-23T13:15:00.516Z,1.67
2018-04-23T13:17:28.064Z,1.27
2018-04-23T13:19:55.523Z,1.40
2018-04-23T13:22:22.980Z,1.10
2018-04-23T13:24:50.443Z,1.20
2018-04-23T13:27:17.905Z,1.70
2018-04-23T13:29:45.356Z,1.40
2018-04-23T13:32:12.840Z,1.70
2018-04-23T13:34:41.068Z,1.70
2018-04-23T13:37:08.512Z,1.27
2018-04-23T13:39:36.008Z,1.70
2018-04-23T13:42:04.231Z,1.57
2018-04-23T13:44:31.701Z,1.40
2018-04-23T13:46:59.195Z,1.10
2018-04-23T13:49:26.735Z,1.20
2018-04-23T13:51:54.304Z,1.47
2018-04-23T13:54:22.560Z,1.70
2018-04-23T13:56:50.016Z,2.20
2018-04-23T13:59:17.477Z,1.33
2018-04-23T14:01:44.944Z,1.03
2018-04-23T14:04:12.401Z,1.27
2018-04-23T14:06:39.859Z,1.70
2018-04-23T14:09:07.338Z,1.87
2018-04-23T14:11:35.585Z,2.13
2018-04-23T14:14:03.053Z,2.87
2018-04-23T14:16:30.520Z,1.47
2018-04-23T14:18:58.831Z,1.60
2018-04-23T14:21:26.408Z,1.33
2018-04-23T14:23:53.921Z,1.37
2018-04-23T14:26:21.348Z,1.53
2018-04-23T14:28:48.829Z,1.43
2018-04-23T14:31:17.049Z,1.00
2018-04-23T14:33:44.501Z,1.53
2018-04-23T14:36:11.980Z,1.60
2018-04-23T14:38:39.441Z,1.47
2018-04-23T14:41:06.941Z,1.53
2018-04-23T14:43:35.181Z,1.87
2018-04-23T14:46:02.637Z,1.13
2018-04-23T14:48:30.103Z,1.00
2018-04-23T14:50:57.552Z,1.53
2018-04-23T14:53:25.033Z,1.20
2018-04-23T14:55:52.541Z,1.43
2018-04-23T14:58:20.005Z,1.43
2018-04-23T15:00:48.385Z,2.00
2018-04-23T15:03:15.856Z,1.40
2018-04-23T15:05:43.630Z,1.40
2018-04-23T15:08:11.120Z,1.20
2018-04-23T15:10:38.648Z,1.53
2018-04-23T15:13:06.212Z,1.27
2018-04-23T15:15:33.751Z,1.00
2018-04-23T15:18:01.218Z,1.00
2018-04-23T15:20:28.673Z,1.00
2018-04-23T15:22:56.141Z,1.00
2018-04-23T15:25:24.296Z,1.00
2018-04-23T15:27:51.773Z,1.13
2018-04-23T15:30:19.224Z,1.10
2018-04-23T15:32:46.671Z,1.00
2018-04-23T15:35:14.173Z,1.10
2018-04-23T15:37:41.609Z,1.07
2018-04-23T15:40:09.828Z,1.10
2018-04-23T15:42:37.309Z,1.47
2018-04-23T15:45:04.762Z,1.07
2018-04-23T15:47:32.228Z,1.10
2018-04-23T15:49:59.699Z,0.80
2018-04-23T15:52:27.168Z,0.90
2018-04-23T15:54:55.393Z,0.83
2018-04-23T15:57:22.886Z,1.10
2018-04-23T15:59:50.336Z,0.70
2018-04-23T16:02:17.793Z,0.90
2018-04-23T16:04:45.273Z,0.80
2018-04-23T16:07:13.489Z,0.80
2018-04-23T16:09:40.978Z,1.00
2018-04-23T16:12:08.445Z,0.90
2018-04-23T16:14:35.916Z,0.90
2018-04-23T16:17:05.093Z,0.60
2018-04-23T16:19:32.549Z,0.70
2018-04-23T16:22:00.007Z,0.80
2018-04-23T16:24:27.470Z,0.73
2018-04-23T16:26:54.928Z,0.70
2018-04-23T16:29:22.400Z,0.70
2018-04-23T16:31:50.628Z,0.77
2018-04-23T16:34:18.103Z,0.90
2018-04-23T16:36:45.564Z,0.93
2018-04-23T16:39:13.028Z,0.70
2018-04-23T16:41:40.497Z,0.80
2018-04-23T16:44:08.717Z,0.93
2018-04-23T16:46:36.200Z,0.90
2018-04-23T16:49:03.664Z,0.87
2018-04-23T16:51:31.144Z,0.90
2018-04-23T16:53:58.701Z,1.27
2018-04-23T16:56:27.488Z,0.80
2018-04-23T16:58:55.732Z,1.07
2018-04-23T17:01:24.020Z,0.70
2018-04-23T17:03:51.501Z,0.90
2018-04-23T17:06:19.732Z,0.77
2018-04-23T17:08:47.193Z,0.70
2018-04-23T17:11:14.684Z,0.70
2018-04-23T17:13:42.920Z,0.80
2018-04-23T17:16:10.404Z,0.80
2018-04-23T17:18:37.867Z,0.90
2018-04-23T17:21:05.330Z,1.13
2018-04-23T17:23:33.950Z,0.83
2018-04-23T17:26:01.398Z,1.03
2018-04-23T17:28:28.911Z,0.90
2018-04-23T17:30:56.360Z,1.20
2018-04-23T17:33:24.866Z,1.17
2018-04-23T17:35:53.110Z,1.37
2018-04-23T17:38:20.591Z,1.00
2018-04-23T17:40:48.824Z,1.00
2018-04-23T17:43:16.292Z,0.90
2018-04-23T17:45:43.786Z,0.90
2018-04-23T17:48:12.053Z,1.07
2018-04-23T17:50:39.545Z,1.20
2018-04-23T17:53:07.791Z,1.47
2018-04-23T17:55:35.298Z,2.10
2018-04-23T17:58:02.776Z,1.20
2018-04-23T18:00:30.237Z,1.33
2018-04-23T18:02:57.700Z,1.87
2018-04-23T18:05:25.188Z,1.70
2018-04-23T18:07:53.428Z,1.40
2018-04-23T18:10:20.896Z,1.50
2018-04-23T18:12:48.391Z,1.87
2018-04-23T18:15:15.845Z,2.00
2018-04-23T18:17:43.323Z,1.60
2018-04-23T18:20:10.833Z,2.23
2018-04-23T18:22:38.328Z,2.07
2018-04-23T18:25:06.189Z,1.87
2018-04-23T18:27:34.997Z,1.53
2018-04-23T18:30:03.720Z,1.50
2018-04-23T18:32:31.985Z,2.13
2018-04-23T18:34:59.460Z,2.00
2018-04-23T18:37:27.432Z,2.53
2018-04-23T18:39:54.885Z,1.60
2018-04-23T18:42:22.400Z,1.80
2018-04-23T18:44:49.869Z,1.13
2018-04-23T18:47:17.312Z,1.97
2018-04-23T18:49:44.834Z,1.77
2018-04-23T18:52:12.292Z,1.77
2018-04-23T18:54:40.523Z,1.60
2018-04-23T18:57:07.976Z,1.60
2018-04-23T18:59:35.512Z,1.20
2018-04-23T19:02:02.972Z,1.20
2018-04-23T19:04:30.530Z,1.30
2018-04-23T19:06:57.996Z,1.73
2018-04-23T19:09:25.473Z,1.60
2018-04-23T19:11:52.920Z,2.00
2018-04-23T19:14:20.401Z,1.67
2018-04-23T19:16:48.693Z,1.57
2018-04-23T19:19:16.917Z,1.50
2018-04-23T19:21:44.394Z,1.73
2018-04-23T19:24:11.844Z,1.90
2018-04-23T19:26:39.301Z,1.97
2018-04-23T19:29:07.069Z,1.60
2018-04-23T19:31:35.342Z,1.57
2018-04-23T19:34:02.763Z,1.70
2018-04-23T19:36:30.262Z,1.83
2018-04-23T19:38:57.709Z,2.57
2018-04-23T19:41:25.166Z,1.90
2018-04-23T19:43:52.643Z,2.17
2018-04-23T19:46:20.174Z,2.40
2018-04-23T19:48:48.339Z,2.47
2018-04-23T19:51:15.788Z,1.80
2018-04-23T19:53:43.269Z,2.73
2018-04-23T19:56:10.720Z,1.73
2018-04-23T19:58:38.188Z,2.10
2018-04-23T20:01:05.640Z,1.70
2018-04-23T20:03:33.107Z,2.80
2018-04-23T20:06:00.571Z,1.40
2018-04-23T20:08:28.453Z,2.97
2018-04-23T20:10:56.718Z,1.90
2018-04-23T20:13:24.149Z,2.20
2018-04-23T20:15:51.637Z,1.83
2018-04-23T20:18:19.097Z,1.53
2018-04-23T20:20:47.346Z,1.90
2018-04-23T20:23:14.918Z,2.00
2018-04-23T20:25:43.077Z,2.20
2018-04-23T20:28:10.580Z,2.00
2018-04-23T20:30:38.060Z,1.97
2018-04-23T20:33:05.538Z,2.43
2018-04-23T20:35:33.017Z,2.07
2018-04-23T20:38:00.481Z,2.70
2018-04-23T20:40:28.369Z,2.73
2018-04-23T20:42:56.605Z,2.40
2018-04-23T20:45:24.074Z,2.40
2018-04-23T20:47:51.529Z,3.00
2018-04-23T20:50:19.009Z,2.77
2018-04-23T20:52:47.252Z,2.60
2018-04-23T20:55:14.748Z,2.33
2018-04-23T20:57:42.215Z,2.27
2018-04-23T21:00:09.668Z,2.63
2018-04-23T21:02:37.121Z,2.80
2018-04-23T21:05:04.600Z,2.40
2018-04-23T21:07:32.061Z,3.07
2018-04-23T21:09:59.534Z,2.73
2018-04-23T21:12:28.810Z,2.80
2018-04-23T21:14:56.275Z,2.77
2018-04-23T21:17:23.746Z,3.27
2018-04-23T21:19:51.210Z,3.57
2018-04-23T21:22:18.700Z,2.47
2018-04-23T21:24:46.149Z,2.43
2018-04-23T21:27:13.608Z,3.17
2018-04-23T21:29:41.060Z,3.10
2018-04-23T21:32:08.524Z,4.63
2018-04-23T21:34:35.979Z,2.60
2018-04-23T21:37:03.454Z,2.90
2018-04-23T21:39:30.945Z,2.40
2018-04-23T21:41:58.405Z,3.10
2018-04-23T21:44:25.868Z,3.10
2018-04-23T21:46:53.331Z,2.70
2018-04-23T21:49:20.808Z,3.10
2018-04-23T21:51:48.390Z,3.80
2018-04-23T21:54:16.620Z,3.33
2018-04-23T21:56:44.097Z,3.87
2018-04-23T21:59:11.560Z,3.40
2018-04-23T22:01:39.017Z,2.83
2018-04-23T22:04:06.496Z,3.07
2018-04-23T22:06:34.736Z,3.63
2018-04-23T22:09:02.206Z,3.60
2018-04-23T22:11:29.725Z,3.53
2018-04-23T22:13:57.185Z,2.40
2018-04-23T22:16:24.653Z,2.50
2018-04-23T22:18:52.125Z,3.33
2018-04-23T22:21:20.221Z,3.83
2018-04-23T22:23:47.705Z,3.10
2018-04-23T22:26:15.184Z,3.07
2018-04-23T22:28:42.639Z,3.10
2018-04-23T22:31:10.122Z,3.47
2018-04-23T22:33:37.578Z,2.90
2018-04-23T22:36:05.933Z,3.03
2018-04-23T22:38:33.394Z,3.37
2018-04-23T22:41:00.853Z,3.50
2018-04-23T22:43:28.380Z,2.80
2018-04-23T22:45:55.884Z,3.33
2018-04-23T22:48:23.334Z,3.07
2018-04-23T22:50:50.808Z,4.27
2018-04-23T22:53:18.276Z,3.00
2018-04-23T22:55:45.727Z,3.03
2018-04-23T22:58:13.196Z,2.93
2018-04-23T23:00:41.416Z,3.50
2018-04-23T23:03:09.720Z,3.27
2018-04-23T23:05:37.181Z,2.93
2018-04-23T23:08:04.653Z,3.40
2018-04-23T23:10:32.104Z,3.43
2018-04-23T23:12:59.569Z,3.87
2018-04-23T23:15:27.261Z,3.73
2018-04-23T23:17:54.714Z,4.30
2018-04-23T23:20:22.205Z,4.70
2018-04-23T23:22:49.683Z,4.20
2018-04-23T23:25:17.137Z,3.30
2018-04-23T23:27:44.610Z,3.93
2018-04-23T23:30:12.065Z,3.70
2018-04-23T23:32:39.528Z,3.60
2018-04-23T23:35:06.992Z,4.60
2018-04-23T23:37:34.473Z,5.07
2018-04-23T23:40:01.958Z,4.13
2018-04-23T23:42:29.413Z,3.07
2018-04-23T23:44:56.877Z,4.03
2018-04-23T23:47:24.341Z,3.43
2018-04-23T23:49:51.798Z,3.57
2018-04-23T23:52:19.289Z,3.40
2018-04-23T23:54:46.749Z,3.60
2018-04-23T23:57:15.011Z,3.50
2018-04-23T23:59:42.553Z,4.07
